sensor_id;sensor_type;location;lat;lon;timestamp;temperature;humidity
20726;DHT22;10524;48.132;8.518;2022-10-26T00:00:00;10.80;99.90
20726;DHT22;10524;48.132;8.518;2022-10-26T00:02:25;10.90;99.90
20726;DHT22;10524;48.132;8.518;2022-10-26T00:04:51;10.90;99.90
20726;DHT22;10524;48.132;8.518;2022-10-26T00:07:17;10.90;99.90
20726;DHT22;10524;48.132;8.518;2022-10-26T00:09:42;10.90;99.90
20726;DHT22;10524;48.132;8.518;2022-10-26T00:12:08;11.00;99.90
20726;DHT22;10524;48.132;8.518;2022-10-26T00:14:34;10.90;99.90
20726;DHT22;10524;48.132;8.518;2022-10-26T00:16:59;10.80;99.90
20726;DHT22;10524;48.132;8.518;2022-10-26T00:19:25;10.70;99.90
20726;DHT22;10524;48.132;8.518;2022-10-26T00:21:51;10.70;99.90
20726;DHT22;10524;48.132;8.518;2022-10-26T00:24:17;10.60;99.90
20726;DHT22;10524;48.132;8.518;2022-10-26T00:26:43;10.60;99.90
20726;DHT22;10524;48.132;8.518;2022-10-26T00:29:12;10.60;99.90
20726;DHT22;10524;48.132;8.518;2022-10-26T00:31:38;10.60;99.90
20726;DHT22;10524;48.132;8.518;2022-10-26T00:34:04;10.50;99.90
20726;DHT22;10524;48.132;8.518;2022-10-26T00:36:30;10.40;99.90
20726;DHT22;10524;48.132;8.518;2022-10-26T00:38:56;10.40;99.90
20726;DHT22;10524;48.132;8.518;2022-10-26T00:41:30;10.40;99.90
20726;DHT22;10524;48.132;8.518;2022-10-26T00:43:56;10.30;99.90
20726;DHT22;10524;48.132;8.518;2022-10-26T00:46:29;10.30;99.90
20726;DHT22;10524;48.132;8.518;2022-10-26T00:49:00;10.40;99.90
20726;DHT22;10524;48.132;8.518;2022-10-26T00:51:37;10.40;99.90
20726;DHT22;10524;48.132;8.518;2022-10-26T00:54:07;10.40;99.90
20726;DHT22;10524;48.132;8.518;2022-10-26T00:56:33;10.30;99.90
20726;DHT22;10524;48.132;8.518;2022-10-26T00:59:03;10.30;99.90
20726;DHT22;10524;48.132;8.518;2022-10-26T01:01:31;10.30;99.90
20726;DHT22;10524;48.132;8.518;2022-10-26T01:03:57;10.30;99.90
20726;DHT22;10524;48.132;8.518;2022-10-26T01:06:24;10.40;99.90
20726;DHT22;10524;48.132;8.518;2022-10-26T01:08:49;10.30;99.90
20726;DHT22;10524;48.132;8.518;2022-10-26T01:11:16;10.30;99.90
20726;DHT22;10524;48.132;8.518;2022-10-26T01:13:42;10.10;99.90
20726;DHT22;10524;48.132;8.518;2022-10-26T01:24:48;9.80;99.90
20726;DHT22;10524;48.132;8.518;2022-10-26T01:27:28;9.70;99.90
20726;DHT22;10524;48.132;8.518;2022-10-26T01:30:30;9.80;99.90
20726;DHT22;10524;48.132;8.518;2022-10-26T01:33:14;9.90;99.90
20726;DHT22;10524;48.132;8.518;2022-10-26T01:40:58;9.70;99.90
20726;DHT22;10524;48.132;8.518;2022-10-26T01:43:28;9.70;99.90
20726;DHT22;10524;48.132;8.518;2022-10-26T01:45:57;9.60;99.90
20726;DHT22;10524;48.132;8.518;2022-10-26T01:48:24;9.60;99.90
20726;DHT22;10524;48.132;8.518;2022-10-26T01:50:52;9.70;99.90
20726;DHT22;10524;48.132;8.518;2022-10-26T01:53:21;9.80;99.90
20726;DHT22;10524;48.132;8.518;2022-10-26T01:55:51;9.90;99.90
20726;DHT22;10524;48.132;8.518;2022-10-26T02:01:13;10.00;99.90
20726;DHT22;10524;48.132;8.518;2022-10-26T02:04:08;10.00;99.90
20726;DHT22;10524;48.132;8.518;2022-10-26T02:12:12;10.00;99.90
20726;DHT22;10524;48.132;8.518;2022-10-26T02:17:16;10.10;99.90
20726;DHT22;10524;48.132;8.518;2022-10-26T02:19:47;10.10;99.90
20726;DHT22;10524;48.132;8.518;2022-10-26T02:22:28;10.20;99.90
20726;DHT22;10524;48.132;8.518;2022-10-26T02:24:58;10.10;99.90
20726;DHT22;10524;48.132;8.518;2022-10-26T02:27:27;10.10;99.90
20726;DHT22;10524;48.132;8.518;2022-10-26T02:29:56;10.10;99.90
20726;DHT22;10524;48.132;8.518;2022-10-26T02:32:25;10.20;99.90
20726;DHT22;10524;48.132;8.518;2022-10-26T02:34:53;10.30;99.90
20726;DHT22;10524;48.132;8.518;2022-10-26T02:37:22;10.40;99.90
20726;DHT22;10524;48.132;8.518;2022-10-26T02:39:50;10.30;99.90
20726;DHT22;10524;48.132;8.518;2022-10-26T02:42:17;10.40;99.90
20726;DHT22;10524;48.132;8.518;2022-10-26T02:44:57;10.50;99.90
20726;DHT22;10524;48.132;8.518;2022-10-26T02:47:25;10.60;99.90
20726;DHT22;10524;48.132;8.518;2022-10-26T02:49:52;10.70;99.90
20726;DHT22;10524;48.132;8.518;2022-10-26T02:55:15;10.90;99.90
20726;DHT22;10524;48.132;8.518;2022-10-26T02:57:46;11.00;99.90
20726;DHT22;10524;48.132;8.518;2022-10-26T03:00:15;11.20;99.90
20726;DHT22;10524;48.132;8.518;2022-10-26T03:02:42;11.20;99.90
20726;DHT22;10524;48.132;8.518;2022-10-26T03:05:30;11.20;99.90
20726;DHT22;10524;48.132;8.518;2022-10-26T03:08:00;11.20;99.90
20726;DHT22;10524;48.132;8.518;2022-10-26T03:10:26;11.10;99.90
20726;DHT22;10524;48.132;8.518;2022-10-26T03:12:52;11.10;99.90
20726;DHT22;10524;48.132;8.518;2022-10-26T03:15:17;11.10;99.90
20726;DHT22;10524;48.132;8.518;2022-10-26T03:17:43;11.00;99.90
20726;DHT22;10524;48.132;8.518;2022-10-26T03:20:09;10.90;99.90
20726;DHT22;10524;48.132;8.518;2022-10-26T03:22:35;10.80;99.90
20726;DHT22;10524;48.132;8.518;2022-10-26T03:25:01;10.70;99.90
20726;DHT22;10524;48.132;8.518;2022-10-26T03:27:27;10.70;99.90
20726;DHT22;10524;48.132;8.518;2022-10-26T03:29:52;10.60;99.90
20726;DHT22;10524;48.132;8.518;2022-10-26T03:32:18;10.60;99.90
20726;DHT22;10524;48.132;8.518;2022-10-26T03:34:44;10.50;99.90
20726;DHT22;10524;48.132;8.518;2022-10-26T03:37:10;10.50;99.90
20726;DHT22;10524;48.132;8.518;2022-10-26T03:39:35;10.50;99.90
20726;DHT22;10524;48.132;8.518;2022-10-26T03:42:01;10.50;99.90
20726;DHT22;10524;48.132;8.518;2022-10-26T03:44:27;10.50;99.90
20726;DHT22;10524;48.132;8.518;2022-10-26T03:46:52;10.60;99.90
20726;DHT22;10524;48.132;8.518;2022-10-26T03:49:18;10.60;99.90
20726;DHT22;10524;48.132;8.518;2022-10-26T03:51:43;10.60;99.90
20726;DHT22;10524;48.132;8.518;2022-10-26T03:54:09;10.60;99.90
20726;DHT22;10524;48.132;8.518;2022-10-26T03:56:35;10.70;99.90
20726;DHT22;10524;48.132;8.518;2022-10-26T03:59:00;10.70;99.90
20726;DHT22;10524;48.132;8.518;2022-10-26T04:01:26;10.70;99.90
20726;DHT22;10524;48.132;8.518;2022-10-26T04:03:51;10.70;99.90
20726;DHT22;10524;48.132;8.518;2022-10-26T04:06:17;10.80;99.90
20726;DHT22;10524;48.132;8.518;2022-10-26T04:08:43;10.90;99.90
20726;DHT22;10524;48.132;8.518;2022-10-26T04:11:08;10.80;99.90
20726;DHT22;10524;48.132;8.518;2022-10-26T04:13:34;10.80;99.90
20726;DHT22;10524;48.132;8.518;2022-10-26T04:16:00;10.80;99.90
20726;DHT22;10524;48.132;8.518;2022-10-26T04:18:26;10.80;99.90
20726;DHT22;10524;48.132;8.518;2022-10-26T04:20:51;10.90;99.90
20726;DHT22;10524;48.132;8.518;2022-10-26T04:23:19;11.00;99.90
20726;DHT22;10524;48.132;8.518;2022-10-26T04:25:45;11.00;99.90
20726;DHT22;10524;48.132;8.518;2022-10-26T04:28:12;11.10;99.90
20726;DHT22;10524;48.132;8.518;2022-10-26T04:30:38;11.10;99.90
20726;DHT22;10524;48.132;8.518;2022-10-26T04:33:05;11.10;99.90
20726;DHT22;10524;48.132;8.518;2022-10-26T04:35:31;11.20;99.90
20726;DHT22;10524;48.132;8.518;2022-10-26T04:38:01;11.40;99.90
20726;DHT22;10524;48.132;8.518;2022-10-26T04:40:27;11.60;99.90
20726;DHT22;10524;48.132;8.518;2022-10-26T04:42:53;11.70;99.90
20726;DHT22;10524;48.132;8.518;2022-10-26T04:45:19;11.70;99.90
20726;DHT22;10524;48.132;8.518;2022-10-26T04:47:45;11.80;99.90
20726;DHT22;10524;48.132;8.518;2022-10-26T04:50:11;11.70;99.90
20726;DHT22;10524;48.132;8.518;2022-10-26T04:52:37;11.80;99.90
20726;DHT22;10524;48.132;8.518;2022-10-26T04:55:03;11.70;99.90
20726;DHT22;10524;48.132;8.518;2022-10-26T04:57:31;11.70;99.90
20726;DHT22;10524;48.132;8.518;2022-10-26T04:59:58;11.50;99.90
20726;DHT22;10524;48.132;8.518;2022-10-26T05:02:24;11.50;99.90
20726;DHT22;10524;48.132;8.518;2022-10-26T05:04:50;11.50;99.90
20726;DHT22;10524;48.132;8.518;2022-10-26T05:07:15;11.40;99.90
20726;DHT22;10524;48.132;8.518;2022-10-26T05:09:41;11.40;99.90
20726;DHT22;10524;48.132;8.518;2022-10-26T05:12:07;11.30;99.90
20726;DHT22;10524;48.132;8.518;2022-10-26T05:14:33;11.40;99.90
20726;DHT22;10524;48.132;8.518;2022-10-26T05:16:58;11.40;99.90
20726;DHT22;10524;48.132;8.518;2022-10-26T05:19:24;11.40;99.90
20726;DHT22;10524;48.132;8.518;2022-10-26T05:21:49;11.40;99.90
20726;DHT22;10524;48.132;8.518;2022-10-26T05:24:17;11.40;99.90
20726;DHT22;10524;48.132;8.518;2022-10-26T05:26:43;11.30;99.90
20726;DHT22;10524;48.132;8.518;2022-10-26T05:29:09;11.30;99.90
20726;DHT22;10524;48.132;8.518;2022-10-26T05:31:34;11.20;99.90
20726;DHT22;10524;48.132;8.518;2022-10-26T05:34:00;11.20;99.90
20726;DHT22;10524;48.132;8.518;2022-10-26T05:36:26;11.10;99.90
20726;DHT22;10524;48.132;8.518;2022-10-26T05:38:51;11.10;99.90
20726;DHT22;10524;48.132;8.518;2022-10-26T05:41:17;11.00;99.90
20726;DHT22;10524;48.132;8.518;2022-10-26T05:43:43;10.90;99.90
20726;DHT22;10524;48.132;8.518;2022-10-26T05:46:11;10.80;99.90
20726;DHT22;10524;48.132;8.518;2022-10-26T05:48:36;10.80;99.90
20726;DHT22;10524;48.132;8.518;2022-10-26T05:51:02;10.80;99.90
20726;DHT22;10524;48.132;8.518;2022-10-26T05:53:28;10.70;99.90
20726;DHT22;10524;48.132;8.518;2022-10-26T05:55:54;10.70;99.90
20726;DHT22;10524;48.132;8.518;2022-10-26T05:58:20;10.70;99.90
20726;DHT22;10524;48.132;8.518;2022-10-26T06:06:01;10.60;99.90
20726;DHT22;10524;48.132;8.518;2022-10-26T06:08:28;10.60;99.90
20726;DHT22;10524;48.132;8.518;2022-10-26T06:10:55;10.60;99.90
20726;DHT22;10524;48.132;8.518;2022-10-26T06:13:21;10.60;99.90
20726;DHT22;10524;48.132;8.518;2022-10-26T06:27:15;10.80;99.90
20726;DHT22;10524;48.132;8.518;2022-10-26T06:30:01;10.80;99.90
20726;DHT22;10524;48.132;8.518;2022-10-26T06:32:27;10.80;99.90
20726;DHT22;10524;48.132;8.518;2022-10-26T06:37:44;11.00;99.90
20726;DHT22;10524;48.132;8.518;2022-10-26T06:40:15;11.10;99.90
20726;DHT22;10524;48.132;8.518;2022-10-26T06:42:41;11.10;99.90
20726;DHT22;10524;48.132;8.518;2022-10-26T06:45:14;11.20;99.90
20726;DHT22;10524;48.132;8.518;2022-10-26T06:47:59;11.30;99.90
20726;DHT22;10524;48.132;8.518;2022-10-26T06:55:44;11.40;99.90
20726;DHT22;10524;48.132;8.518;2022-10-26T06:58:19;11.50;99.90
20726;DHT22;10524;48.132;8.518;2022-10-26T07:00:48;11.60;99.90
20726;DHT22;10524;48.132;8.518;2022-10-26T07:03:14;11.60;99.90
20726;DHT22;10524;48.132;8.518;2022-10-26T07:05:40;11.70;99.90
20726;DHT22;10524;48.132;8.518;2022-10-26T07:08:07;11.90;99.90
20726;DHT22;10524;48.132;8.518;2022-10-26T07:10:32;12.20;99.90
20726;DHT22;10524;48.132;8.518;2022-10-26T07:13:06;12.60;99.90
20726;DHT22;10524;48.132;8.518;2022-10-26T07:15:33;14.30;99.90
20726;DHT22;10524;48.132;8.518;2022-10-26T07:17:59;15.40;99.90
20726;DHT22;10524;48.132;8.518;2022-10-26T07:20:24;15.80;99.90
20726;DHT22;10524;48.132;8.518;2022-10-26T07:22:51;16.80;99.90
20726;DHT22;10524;48.132;8.518;2022-10-26T07:25:19;16.80;99.90
20726;DHT22;10524;48.132;8.518;2022-10-26T07:27:45;17.40;99.90
20726;DHT22;10524;48.132;8.518;2022-10-26T07:30:11;18.20;99.90
20726;DHT22;10524;48.132;8.518;2022-10-26T07:32:37;19.00;99.90
20726;DHT22;10524;48.132;8.518;2022-10-26T07:35:02;19.90;99.90
20726;DHT22;10524;48.132;8.518;2022-10-26T07:37:28;20.70;99.90
20726;DHT22;10524;48.132;8.518;2022-10-26T07:39:54;20.80;99.90
20726;DHT22;10524;48.132;8.518;2022-10-26T07:42:19;20.60;99.90
20726;DHT22;10524;48.132;8.518;2022-10-26T07:44:45;21.00;99.90
20726;DHT22;10524;48.132;8.518;2022-10-26T07:47:11;20.40;99.90
20726;DHT22;10524;48.132;8.518;2022-10-26T07:49:36;18.60;99.90
20726;DHT22;10524;48.132;8.518;2022-10-26T07:52:02;17.80;99.90
20726;DHT22;10524;48.132;8.518;2022-10-26T07:54:28;17.30;99.90
20726;DHT22;10524;48.132;8.518;2022-10-26T07:56:53;17.60;99.90
20726;DHT22;10524;48.132;8.518;2022-10-26T07:59:19;17.00;99.90
20726;DHT22;10524;48.132;8.518;2022-10-26T08:01:44;16.10;99.90
20726;DHT22;10524;48.132;8.518;2022-10-26T08:04:10;15.70;99.90
20726;DHT22;10524;48.132;8.518;2022-10-26T08:06:36;15.40;99.90
20726;DHT22;10524;48.132;8.518;2022-10-26T08:09:02;15.30;99.90
20726;DHT22;10524;48.132;8.518;2022-10-26T08:11:28;16.10;99.90
20726;DHT22;10524;48.132;8.518;2022-10-26T08:13:54;17.30;99.90
20726;DHT22;10524;48.132;8.518;2022-10-26T08:16:20;16.40;99.90
20726;DHT22;10524;48.132;8.518;2022-10-26T08:18:47;15.80;99.90
20726;DHT22;10524;48.132;8.518;2022-10-26T08:21:14;15.20;99.90
20726;DHT22;10524;48.132;8.518;2022-10-26T08:23:40;15.00;99.90
20726;DHT22;10524;48.132;8.518;2022-10-26T08:26:05;14.90;99.90
20726;DHT22;10524;48.132;8.518;2022-10-26T08:28:32;14.90;99.90
20726;DHT22;10524;48.132;8.518;2022-10-26T08:30:57;14.90;99.90
20726;DHT22;10524;48.132;8.518;2022-10-26T08:33:24;15.00;99.90
20726;DHT22;10524;48.132;8.518;2022-10-26T08:36:03;15.10;99.90
20726;DHT22;10524;48.132;8.518;2022-10-26T08:38:29;15.00;99.90
20726;DHT22;10524;48.132;8.518;2022-10-26T08:40:56;14.90;99.90
20726;DHT22;10524;48.132;8.518;2022-10-26T08:43:32;14.80;99.90
20726;DHT22;10524;48.132;8.518;2022-10-26T08:46:16;14.60;99.90
20726;DHT22;10524;48.132;8.518;2022-10-26T08:48:57;14.60;99.90
20726;DHT22;10524;48.132;8.518;2022-10-26T08:51:31;14.60;99.90
20726;DHT22;10524;48.132;8.518;2022-10-26T08:54:07;14.70;99.90
20726;DHT22;10524;48.132;8.518;2022-10-26T08:56:39;14.90;99.90
20726;DHT22;10524;48.132;8.518;2022-10-26T09:02:00;15.40;99.90
20726;DHT22;10524;48.132;8.518;2022-10-26T09:04:28;15.70;99.90
20726;DHT22;10524;48.132;8.518;2022-10-26T09:08:08;16.10;99.90
20726;DHT22;10524;48.132;8.518;2022-10-26T09:13:15;16.80;99.90
20726;DHT22;10524;48.132;8.518;2022-10-26T09:21:46;17.80;99.90
20726;DHT22;10524;48.132;8.518;2022-10-26T09:24:30;21.50;99.90
20726;DHT22;10524;48.132;8.518;2022-10-26T09:27:27;23.30;99.90
20726;DHT22;10524;48.132;8.518;2022-10-26T09:29:55;22.80;99.90
20726;DHT22;10524;48.132;8.518;2022-10-26T09:32:34;23.90;99.90
20726;DHT22;10524;48.132;8.518;2022-10-26T09:35:04;23.40;99.90
20726;DHT22;10524;48.132;8.518;2022-10-26T09:37:39;24.40;99.90
20726;DHT22;10524;48.132;8.518;2022-10-26T09:43:16;27.60;99.90
20726;DHT22;10524;48.132;8.518;2022-10-26T09:45:48;25.70;99.90
20726;DHT22;10524;48.132;8.518;2022-10-26T09:51:16;28.00;99.90
20726;DHT22;10524;48.132;8.518;2022-10-26T09:53:41;29.10;99.90
20726;DHT22;10524;48.132;8.518;2022-10-26T09:56:12;28.70;99.90
20726;DHT22;10524;48.132;8.518;2022-10-26T09:59:00;25.40;99.90
20726;DHT22;10524;48.132;8.518;2022-10-26T10:01:32;24.00;99.90
20726;DHT22;10524;48.132;8.518;2022-10-26T10:09:25;23.50;99.90
20726;DHT22;10524;48.132;8.518;2022-10-26T10:12:03;25.00;99.90
20726;DHT22;10524;48.132;8.518;2022-10-26T10:14:31;28.10;99.90
20726;DHT22;10524;48.132;8.518;2022-10-26T10:22:00;30.80;99.90
20726;DHT22;10524;48.132;8.518;2022-10-26T10:29:27;26.10;99.90
20726;DHT22;10524;48.132;8.518;2022-10-26T10:32:01;25.00;99.90
20726;DHT22;10524;48.132;8.518;2022-10-26T10:34:30;25.60;99.90
20726;DHT22;10524;48.132;8.518;2022-10-26T10:36:57;28.60;99.90
20726;DHT22;10524;48.132;8.518;2022-10-26T10:39:40;29.90;99.90
20726;DHT22;10524;48.132;8.518;2022-10-26T10:42:15;30.60;99.90
20726;DHT22;10524;48.132;8.518;2022-10-26T10:44:42;32.00;99.90
20726;DHT22;10524;48.132;8.518;2022-10-26T10:47:20;32.50;99.90
20726;DHT22;10524;48.132;8.518;2022-10-26T10:49:59;31.90;99.90
20726;DHT22;10524;48.132;8.518;2022-10-26T10:52:28;32.30;99.90
20726;DHT22;10524;48.132;8.518;2022-10-26T11:00:09;32.10;99.90
20726;DHT22;10524;48.132;8.518;2022-10-26T11:08:25;31.50;99.90
20726;DHT22;10524;48.132;8.518;2022-10-26T11:16:41;30.40;99.90
20726;DHT22;10524;48.132;8.518;2022-10-26T11:21:49;31.60;99.90
20726;DHT22;10524;48.132;8.518;2022-10-26T11:27:21;31.90;99.90
20726;DHT22;10524;48.132;8.518;2022-10-26T11:30:05;31.90;99.90
20726;DHT22;10524;48.132;8.518;2022-10-26T11:32:45;32.80;99.90
20726;DHT22;10524;48.132;8.518;2022-10-26T11:35:43;32.60;99.90
20726;DHT22;10524;48.132;8.518;2022-10-26T11:38:22;32.50;99.90
20726;DHT22;10524;48.132;8.518;2022-10-26T11:46:28;30.90;99.90
20726;DHT22;10524;48.132;8.518;2022-10-26T11:52:12;28.40;99.90
20726;DHT22;10524;48.132;8.518;2022-10-26T11:54:50;26.30;99.90
20726;DHT22;10524;48.132;8.518;2022-10-26T11:57:18;24.90;99.90
20726;DHT22;10524;48.132;8.518;2022-10-26T11:59:52;25.10;99.90
20726;DHT22;10524;48.132;8.518;2022-10-26T12:02:20;25.60;99.90
20726;DHT22;10524;48.132;8.518;2022-10-26T12:04:51;26.00;99.90
20726;DHT22;10524;48.132;8.518;2022-10-26T12:07:29;25.80;99.90
20726;DHT22;10524;48.132;8.518;2022-10-26T12:09:56;27.50;99.90
20726;DHT22;10524;48.132;8.518;2022-10-26T12:12:45;26.10;99.90
20726;DHT22;10524;48.132;8.518;2022-10-26T12:17:52;26.80;99.90
20726;DHT22;10524;48.132;8.518;2022-10-26T12:20:43;28.40;99.90
20726;DHT22;10524;48.132;8.518;2022-10-26T12:23:14;28.80;99.90
20726;DHT22;10524;48.132;8.518;2022-10-26T12:25:40;28.50;99.90
20726;DHT22;10524;48.132;8.518;2022-10-26T12:34:06;29.50;99.90
20726;DHT22;10524;48.132;8.518;2022-10-26T12:47:06;23.10;99.90
20726;DHT22;10524;48.132;8.518;2022-10-26T12:53:34;21.50;99.90
20726;DHT22;10524;48.132;8.518;2022-10-26T13:03:45;20.20;99.90
20726;DHT22;10524;48.132;8.518;2022-10-26T13:08:49;20.20;99.90
20726;DHT22;10524;48.132;8.518;2022-10-26T13:11:27;20.20;99.90
20726;DHT22;10524;48.132;8.518;2022-10-26T13:13:56;20.10;99.90
20726;DHT22;10524;48.132;8.518;2022-10-26T13:16:25;20.10;99.90
20726;DHT22;10524;48.132;8.518;2022-10-26T13:18:51;20.10;99.90
20726;DHT22;10524;48.132;8.518;2022-10-26T13:21:18;20.00;99.90
20726;DHT22;10524;48.132;8.518;2022-10-26T13:23:57;19.90;99.90
20726;DHT22;10524;48.132;8.518;2022-10-26T13:26:30;20.00;99.90
20726;DHT22;10524;48.132;8.518;2022-10-26T13:29:00;20.20;99.90
20726;DHT22;10524;48.132;8.518;2022-10-26T13:34:15;20.20;99.90
20726;DHT22;10524;48.132;8.518;2022-10-26T13:37:02;20.10;99.90
20726;DHT22;10524;48.132;8.518;2022-10-26T13:39:40;20.00;99.90
20726;DHT22;10524;48.132;8.518;2022-10-26T13:42:12;19.90;99.90
20726;DHT22;10524;48.132;8.518;2022-10-26T13:45:04;19.80;99.90
20726;DHT22;10524;48.132;8.518;2022-10-26T13:47:56;19.80;99.90
20726;DHT22;10524;48.132;8.518;2022-10-26T13:50:30;19.70;99.90
20726;DHT22;10524;48.132;8.518;2022-10-26T13:53:15;19.60;99.90
20726;DHT22;10524;48.132;8.518;2022-10-26T13:55:52;19.60;99.90
20726;DHT22;10524;48.132;8.518;2022-10-26T13:58:21;19.50;99.90
20726;DHT22;10524;48.132;8.518;2022-10-26T14:01:20;19.40;99.90
20726;DHT22;10524;48.132;8.518;2022-10-26T14:03:47;19.40;99.90
20726;DHT22;10524;48.132;8.518;2022-10-26T14:06:36;19.30;99.90
20726;DHT22;10524;48.132;8.518;2022-10-26T14:09:12;19.30;99.90
20726;DHT22;10524;48.132;8.518;2022-10-26T14:11:59;19.20;99.90
20726;DHT22;10524;48.132;8.518;2022-10-26T14:14:29;19.20;99.90
20726;DHT22;10524;48.132;8.518;2022-10-26T14:16:56;19.10;99.90
20726;DHT22;10524;48.132;8.518;2022-10-26T14:19:44;19.10;99.90
20726;DHT22;10524;48.132;8.518;2022-10-26T14:22:22;19.10;99.90
20726;DHT22;10524;48.132;8.518;2022-10-26T14:24:53;19.00;99.90
20726;DHT22;10524;48.132;8.518;2022-10-26T14:27:22;18.90;99.90
20726;DHT22;10524;48.132;8.518;2022-10-26T14:29:50;18.90;99.90
20726;DHT22;10524;48.132;8.518;2022-10-26T14:34:45;18.80;99.90
20726;DHT22;10524;48.132;8.518;2022-10-26T14:37:23;18.70;99.90
20726;DHT22;10524;48.132;8.518;2022-10-26T14:39:51;18.70;99.90
20726;DHT22;10524;48.132;8.518;2022-10-26T14:42:28;18.60;99.90
20726;DHT22;10524;48.132;8.518;2022-10-26T14:44:55;18.60;99.90
20726;DHT22;10524;48.132;8.518;2022-10-26T14:47:29;18.60;99.90
20726;DHT22;10524;48.132;8.518;2022-10-26T14:49:56;18.60;99.90
20726;DHT22;10524;48.132;8.518;2022-10-26T14:55:02;18.40;99.90
20726;DHT22;10524;48.132;8.518;2022-10-26T15:00:00;18.20;99.90
20726;DHT22;10524;48.132;8.518;2022-10-26T15:02:27;18.10;99.90
20726;DHT22;10524;48.132;8.518;2022-10-26T15:05:03;18.00;99.90
20726;DHT22;10524;48.132;8.518;2022-10-26T15:07:36;17.80;99.90
20726;DHT22;10524;48.132;8.518;2022-10-26T15:10:04;17.70;99.90
20726;DHT22;10524;48.132;8.518;2022-10-26T15:12:31;17.60;99.90
20726;DHT22;10524;48.132;8.518;2022-10-26T15:17:52;17.40;99.90
20726;DHT22;10524;48.132;8.518;2022-10-26T15:20:21;17.30;99.90
20726;DHT22;10524;48.132;8.518;2022-10-26T15:23:00;17.20;99.90
20726;DHT22;10524;48.132;8.518;2022-10-26T15:25:29;17.00;99.90
20726;DHT22;10524;48.132;8.518;2022-10-26T15:28:17;16.90;99.90
20726;DHT22;10524;48.132;8.518;2022-10-26T15:31:05;16.70;99.90
20726;DHT22;10524;48.132;8.518;2022-10-26T15:33:31;16.60;99.90
20726;DHT22;10524;48.132;8.518;2022-10-26T15:38:33;16.40;99.90
20726;DHT22;10524;48.132;8.518;2022-10-26T15:40:59;16.20;99.90
20726;DHT22;10524;48.132;8.518;2022-10-26T15:43:24;16.00;99.90
20726;DHT22;10524;48.132;8.518;2022-10-26T15:45:50;15.80;99.90
20726;DHT22;10524;48.132;8.518;2022-10-26T15:48:26;15.60;99.90
20726;DHT22;10524;48.132;8.518;2022-10-26T15:50:56;15.50;99.90
20726;DHT22;10524;48.132;8.518;2022-10-26T15:56:44;15.20;99.90
20726;DHT22;10524;48.132;8.518;2022-10-26T15:59:16;15.00;99.90
20726;DHT22;10524;48.132;8.518;2022-10-26T16:01:42;14.90;99.90
20726;DHT22;10524;48.132;8.518;2022-10-26T16:04:09;14.70;99.90
20726;DHT22;10524;48.132;8.518;2022-10-26T16:06:35;14.60;99.90
20726;DHT22;10524;48.132;8.518;2022-10-26T16:09:05;14.60;99.90
20726;DHT22;10524;48.132;8.518;2022-10-26T16:11:31;14.60;99.90
20726;DHT22;10524;48.132;8.518;2022-10-26T16:13:57;14.40;99.90
20726;DHT22;10524;48.132;8.518;2022-10-26T16:16:23;14.20;99.90
20726;DHT22;10524;48.132;8.518;2022-10-26T16:18:55;14.00;99.90
20726;DHT22;10524;48.132;8.518;2022-10-26T16:21:22;13.90;99.90
20726;DHT22;10524;48.132;8.518;2022-10-26T16:23:51;13.80;99.90
20726;DHT22;10524;48.132;8.518;2022-10-26T16:26:18;13.60;99.90
20726;DHT22;10524;48.132;8.518;2022-10-26T16:28:44;13.40;99.90
20726;DHT22;10524;48.132;8.518;2022-10-26T16:31:11;13.40;99.90
20726;DHT22;10524;48.132;8.518;2022-10-26T16:33:37;13.50;99.90
20726;DHT22;10524;48.132;8.518;2022-10-26T16:36:04;13.60;99.90
20726;DHT22;10524;48.132;8.518;2022-10-26T16:38:31;13.50;99.90
20726;DHT22;10524;48.132;8.518;2022-10-26T16:43:34;13.00;99.90
20726;DHT22;10524;48.132;8.518;2022-10-26T16:46:04;12.90;99.90
20726;DHT22;10524;48.132;8.518;2022-10-26T16:48:30;12.70;99.90
20726;DHT22;10524;48.132;8.518;2022-10-26T16:50:55;12.40;99.90
20726;DHT22;10524;48.132;8.518;2022-10-26T16:53:22;12.30;99.90
20726;DHT22;10524;48.132;8.518;2022-10-26T16:55:48;12.20;99.90
20726;DHT22;10524;48.132;8.518;2022-10-26T16:58:13;12.10;99.90
20726;DHT22;10524;48.132;8.518;2022-10-26T17:00:39;12.00;99.90
20726;DHT22;10524;48.132;8.518;2022-10-26T17:03:04;11.80;99.90
20726;DHT22;10524;48.132;8.518;2022-10-26T17:05:30;11.70;99.90
20726;DHT22;10524;48.132;8.518;2022-10-26T17:07:56;11.70;99.90
20726;DHT22;10524;48.132;8.518;2022-10-26T17:10:21;11.70;99.90
20726;DHT22;10524;48.132;8.518;2022-10-26T17:12:47;11.70;99.90
20726;DHT22;10524;48.132;8.518;2022-10-26T17:15:13;11.60;99.90
20726;DHT22;10524;48.132;8.518;2022-10-26T17:17:38;11.50;99.90
20726;DHT22;10524;48.132;8.518;2022-10-26T17:20:04;11.50;99.90
20726;DHT22;10524;48.132;8.518;2022-10-26T17:22:30;11.40;99.90
20726;DHT22;10524;48.132;8.518;2022-10-26T17:24:56;11.40;99.90
20726;DHT22;10524;48.132;8.518;2022-10-26T17:27:21;11.30;99.90
20726;DHT22;10524;48.132;8.518;2022-10-26T17:29:47;11.20;99.90
20726;DHT22;10524;48.132;8.518;2022-10-26T17:32:14;11.10;99.90
20726;DHT22;10524;48.132;8.518;2022-10-26T17:34:41;11.00;99.90
20726;DHT22;10524;48.132;8.518;2022-10-26T17:37:07;10.90;99.90
20726;DHT22;10524;48.132;8.518;2022-10-26T17:39:33;10.90;99.90
20726;DHT22;10524;48.132;8.518;2022-10-26T17:41:58;10.80;99.90
20726;DHT22;10524;48.132;8.518;2022-10-26T17:44:24;10.80;99.90
20726;DHT22;10524;48.132;8.518;2022-10-26T17:46:49;10.90;99.90
20726;DHT22;10524;48.132;8.518;2022-10-26T17:49:15;11.00;99.90
20726;DHT22;10524;48.132;8.518;2022-10-26T17:51:41;11.10;99.90
20726;DHT22;10524;48.132;8.518;2022-10-26T17:54:06;11.10;99.90
20726;DHT22;10524;48.132;8.518;2022-10-26T17:56:33;11.00;99.90
20726;DHT22;10524;48.132;8.518;2022-10-26T17:59:01;11.00;99.90
20726;DHT22;10524;48.132;8.518;2022-10-26T18:01:27;10.90;99.90
20726;DHT22;10524;48.132;8.518;2022-10-26T18:03:53;10.70;99.90
20726;DHT22;10524;48.132;8.518;2022-10-26T18:06:20;10.50;99.90
20726;DHT22;10524;48.132;8.518;2022-10-26T18:08:46;10.40;99.90
20726;DHT22;10524;48.132;8.518;2022-10-26T18:11:15;10.30;99.90
20726;DHT22;10524;48.132;8.518;2022-10-26T18:13:43;10.20;99.90
20726;DHT22;10524;48.132;8.518;2022-10-26T18:16:12;10.20;99.90
20726;DHT22;10524;48.132;8.518;2022-10-26T18:18:39;10.10;99.90
20726;DHT22;10524;48.132;8.518;2022-10-26T18:21:10;10.10;99.90
20726;DHT22;10524;48.132;8.518;2022-10-26T18:23:36;10.00;99.90
20726;DHT22;10524;48.132;8.518;2022-10-26T18:26:04;9.90;99.90
20726;DHT22;10524;48.132;8.518;2022-10-26T18:28:31;9.80;99.90
20726;DHT22;10524;48.132;8.518;2022-10-26T18:31:05;9.80;99.90
20726;DHT22;10524;48.132;8.518;2022-10-26T18:33:32;9.80;99.90
20726;DHT22;10524;48.132;8.518;2022-10-26T18:36:09;9.90;99.90
20726;DHT22;10524;48.132;8.518;2022-10-26T18:38:35;9.80;99.90